Time;durP1;ratioP1;P1;durP2;ratioP2;P2;SDS_P1;SDS_P2;PMS_P1;PMS_P2;Temp;Humidity;BMP_temperature;BMP_pressure;BME280_temperature;BME280_humidity;BME280_pressure;Samples;Min_cycle;Max_cycle;Signal;HPM_P1;HPM_P2
2021/03/25 00:01:14;;;;;;;34.20;15.40;;;;;;;4.77;73.36;101311.52;113023;1209;65729;-76
2021/03/25 00:03:41;;;;;;;37.57;16.70;;;;;;;4.75;73.98;101306.38;113065;1209;64362;-76
2021/03/25 00:06:08;;;;;;;38.73;17.37;;;;;;;4.72;73.37;101311.03;112956;1209;64423;-76
2021/03/25 00:08:35;;;;;;;37.40;15.53;;;;;;;4.70;74.08;101303.30;112978;1209;64400;-73
2021/03/25 00:11:01;;;;;;;41.93;17.43;;;;;;;4.70;74.11;101304.13;113000;1209;64378;-77
2021/03/25 00:13:29;;;;;;;42.63;18.50;;;;;;;4.70;73.92;101305.92;113045;1209;65332;-76
2021/03/25 00:15:55;;;;;;;45.10;17.30;;;;;;;4.71;73.68;101312.84;113092;1209;64448;-75
2021/03/25 00:18:22;;;;;;;35.93;16.50;;;;;;;4.69;74.35;101317.38;112983;1209;65472;-75
2021/03/25 00:20:49;;;;;;;37.17;15.80;;;;;;;4.68;74.25;101313.09;112947;1209;64419;-75
2021/03/25 00:23:18;;;;;;;36.30;16.40;;;;;;;4.66;74.34;101317.63;113213;1209;64445;-76
2021/03/25 00:25:45;;;;;;;35.90;16.03;;;;;;;4.62;73.81;101321.45;113113;1209;64432;-76
2021/03/25 00:28:13;;;;;;;39.65;16.60;;;;;;;4.57;73.96;101320.96;113151;1209;64742;-78
2021/03/25 00:30:40;;;;;;;42.60;17.15;;;;;;;4.55;74.10;101325.50;113078;1209;64324;-76
2021/03/25 00:33:16;;;;;;;49.63;17.30;;;;;;;4.52;74.57;101321.33;113097;1208;64351;-76
2021/03/25 00:35:45;;;;;;;47.57;18.20;;;;;;;4.51;74.79;101324.09;113090;1209;64371;-77
2021/03/25 00:38:13;;;;;;;40.50;16.77;;;;;;;4.49;74.65;101314.53;112946;1209;64809;-75
2021/03/25 00:40:44;;;;;;;44.20;18.30;;;;;;;4.47;74.57;101318.24;113164;1209;64397;-75
2021/03/25 00:43:11;;;;;;;46.45;17.40;;;;;;;4.46;74.48;101306.91;113062;1209;64451;-75
2021/03/25 00:45:44;;;;;;;43.35;16.50;;;;;;;4.44;75.28;101308.81;113067;1209;64333;-75
2021/03/25 00:48:13;;;;;;;48.20;17.97;;;;;;;4.44;75.13;101310.58;113093;1209;64542;-75
2021/03/25 00:50:43;;;;;;;46.60;17.67;;;;;;;4.43;75.66;101311.55;113203;1209;64531;-75
2021/03/25 00:53:16;;;;;;;55.23;20.17;;;;;;;4.45;75.92;101314.89;113208;1209;64394;-75
2021/03/25 00:55:43;;;;;;;47.10;18.23;;;;;;;4.45;75.39;101307.84;112981;1209;65510;-75
2021/03/25 00:58:10;;;;;;;44.85;17.75;;;;;;;4.44;75.36;101308.81;112886;1209;64260;-74
2021/03/25 01:00:39;;;;;;;50.65;18.40;;;;;;;4.42;75.88;101313.35;112976;1209;64554;-76
2021/03/25 01:03:07;;;;;;;51.97;19.20;;;;;;;4.39;75.36;101310.12;113029;1209;64479;-76
2021/03/25 01:05:34;;;;;;;46.33;19.00;;;;;;;4.36;75.56;101313.83;112956;1209;64320;-76
2021/03/25 01:08:01;;;;;;;45.60;18.53;;;;;;;4.34;76.17;101317.53;112983;1209;64404;-75
2021/03/25 01:10:32;;;;;;;47.53;20.13;;;;;;;4.33;76.23;101316.67;112962;1209;64384;-75
2021/03/25 01:13:00;;;;;;;51.00;20.23;;;;;;;4.35;76.63;101312.14;112932;1209;64410;-76
2021/03/25 01:15:28;;;;;;;48.87;20.00;;;;;;;4.36;76.27;101313.83;112974;1209;64595;-76
2021/03/25 01:17:58;;;;;;;54.27;22.90;;;;;;;4.37;76.06;101307.60;113153;1209;64297;-77
2021/03/25 01:20:33;;;;;;;45.07;19.00;;;;;;;4.36;76.50;101305.95;113050;1209;64454;-75
2021/03/25 01:23:00;;;;;;;;;;;;;;;4.37;76.49;101306.77;112926;1216;64307;-74
2021/03/25 01:25:28;;;;;;;46.95;19.85;;;;;;;4.36;77.01;101311.20;112985;1209;64445;-76
2021/03/25 01:27:57;;;;;;;47.37;18.43;;;;;;;4.35;76.71;101299.00;113126;1209;64880;-76
2021/03/25 01:30:25;;;;;;;38.23;15.40;;;;;;;4.32;77.13;101296.63;113095;1209;64922;-75
2021/03/25 01:32:52;;;;;;;57.20;20.40;;;;;;;4.27;76.76;101290.88;113249;1209;65498;-75
2021/03/25 01:35:20;;;;;;;49.90;19.13;;;;;;;4.23;76.51;101294.70;113090;1209;64414;-75
2021/03/25 01:37:48;;;;;;;49.53;19.67;;;;;;;4.19;76.46;101298.55;113031;1209;65652;-75
2021/03/25 01:40:17;;;;;;;47.85;19.90;;;;;;;4.15;76.27;101291.86;112937;1209;64409;-75
2021/03/25 01:42:44;;;;;;;48.50;20.67;;;;;;;4.13;76.61;101293.77;113039;1209;64377;-75
2021/03/25 01:45:29;;;;;;;39.13;17.07;;;;;;;4.10;77.18;101289.56;112938;1209;64442;-75
2021/03/25 01:47:58;;;;;;;47.55;20.80;;;;;;;4.08;77.52;101294.13;112943;1209;64336;-76
2021/03/25 01:50:25;;;;;;;41.63;18.57;;;;;;;4.04;77.23;101293.52;113051;1209;66268;-75
2021/03/25 01:53:31;;;;;;;43.37;19.23;;;;;;;4.01;77.22;101291.11;113017;1209;64381;-76
2021/03/25 01:56:14;;;;;;;;;;;;;;;3.95;77.13;101296.82;112968;1216;64920;-75
2021/03/25 01:58:59;;;;;;;50.03;19.10;;;;;;;3.90;77.90;101293.72;113318;1209;64413;-76
2021/03/25 02:01:43;;;;;;;52.37;20.10;;;;;;;3.85;77.67;101288.00;112944;1209;64388;-75
2021/03/25 02:04:32;;;;;;;55.18;20.73;;;;;;;3.82;77.88;101290.84;113049;1209;64358;-75
2021/03/25 02:07:16;;;;;;;51.17;20.23;;;;;;;3.79;77.92;101286.67;112927;1209;64389;-75
2021/03/25 02:10:11;;;;;;;56.40;21.20;;;;;;;3.81;77.97;101283.94;112915;1209;65318;-76
2021/03/25 02:12:54;;;;;;;66.05;23.40;;;;;;;3.80;78.38;101280.45;112992;1209;64309;-76
2021/03/25 02:15:37;;;;;;;47.80;20.40;;;;;;;3.82;78.31;101285.59;112988;1209;64368;-74
2021/03/25 02:18:24;;;;;;;52.53;21.10;;;;;;;3.83;78.53;101282.86;113073;1209;64384;-76
2021/03/25 02:21:08;;;;;;;52.03;21.80;;;;;;;3.83;78.26;101277.61;113014;1209;64516;-75
2021/03/25 02:24:10;;;;;;;54.97;22.30;;;;;;;3.86;78.92;101276.53;112987;1209;64348;-75
2021/03/25 02:27:14;;;;;;;64.63;23.10;;;;;;;3.86;79.15;101266.04;112978;1209;64365;-75
2021/03/25 02:30:01;;;;;;;54.35;21.35;;;;;;;3.86;78.57;101264.23;112956;1209;64406;-75
2021/03/25 02:32:32;;;;;;;53.63;23.23;;;;;;;3.86;79.00;101266.04;113088;1209;64392;-75
2021/03/25 02:35:04;;;;;;;53.70;21.30;;;;;;;3.85;78.14;101261.76;113020;1209;64467;-75
2021/03/25 02:37:34;;;;;;;54.90;23.95;;;;;;;3.80;78.50;101258.63;112932;1209;64393;-75
2021/03/25 02:40:08;;;;;;;53.55;23.20;;;;;;;3.76;78.73;101260.67;113460;1209;64365;-74
2021/03/25 02:42:45;;;;;;;61.00;22.57;;;;;;;3.71;78.72;101264.59;112932;1209;64384;-74
2021/03/25 02:45:34;;;;;;;50.50;20.95;;;;;;;3.66;78.56;101265.77;112951;1209;64419;-75
2021/03/25 02:48:11;;;;;;;55.00;24.53;;;;;;;3.62;78.66;101268.74;113026;1209;64346;-74
2021/03/25 02:50:43;;;;;;;50.95;22.80;;;;;;;3.59;79.29;101259.33;112970;1207;64421;-74
2021/03/25 02:53:21;;;;;;;62.77;23.20;;;;;;;3.57;79.45;101255.98;112943;1209;65463;-77
2021/03/25 02:55:47;;;;;;;68.73;26.80;;;;;;;3.53;79.65;101257.16;112976;1209;64361;-75
2021/03/25 02:58:24;;;;;;;56.40;25.30;;;;;;;3.51;79.91;101250.33;112948;1207;64368;-74
2021/03/25 03:01:02;;;;;;;53.87;23.27;;;;;;;3.47;80.35;101254.99;112988;1209;64400;-76
2021/03/25 03:03:34;;;;;;;62.43;21.87;;;;;;;3.45;80.46;101252.48;112947;1209;64372;-77
2021/03/25 03:06:02;;;;;;;58.40;23.45;;;;;;;3.42;80.29;101251.86;113460;1209;65588;-75
2021/03/25 03:08:36;;;;;;;65.43;24.27;;;;;;;3.41;80.24;101253.66;113010;1209;64396;-75
2021/03/25 03:11:21;;;;;;;57.60;23.13;;;;;;;3.39;80.30;101241.61;113049;1209;64338;-77
2021/03/25 03:14:00;;;;;;;59.83;23.90;;;;;;;3.37;80.38;101238.27;113110;1209;64588;-76
2021/03/25 03:16:34;;;;;;;54.40;21.60;;;;;;;3.34;80.57;101249.00;113019;1209;64348;-76
2021/03/25 03:19:12;;;;;;;52.47;19.70;;;;;;;3.31;81.48;101249.21;112956;1209;64400;-75
2021/03/25 03:21:48;;;;;;;54.15;23.75;;;;;;;3.27;82.05;101248.59;112991;1209;64389;-75
2021/03/25 03:24:17;;;;;;;62.33;24.57;;;;;;;3.27;81.61;101251.22;113124;1209;64387;-75
2021/03/25 03:26:53;;;;;;;60.33;24.03;;;;;;;3.27;81.76;101248.59;115950;1209;62238;-77
2021/03/25 03:29:22;;;;;;;65.27;25.77;;;;;;;3.30;81.78;101248.38;113323;1209;64456;-75
2021/03/25 03:32:20;;;;;;;63.20;24.60;;;;;;;3.34;81.67;101246.38;112997;1209;65469;-76
2021/03/25 03:34:48;;;;;;;40.95;20.05;;;;;;;3.36;82.30;101247.07;112950;1209;64560;-74
2021/03/25 03:37:21;;;;;;;63.33;24.60;;;;;;;3.37;82.74;101248.76;113053;1209;64384;-77
2021/03/25 03:39:51;;;;;;;62.03;24.30;;;;;;;3.40;82.96;101252.00;113024;1209;64390;-75
2021/03/25 03:42:21;;;;;;;67.45;25.10;;;;;;;3.43;82.86;101250.92;112923;1209;64362;-75
2021/03/25 03:44:51;;;;;;;68.00;23.13;;;;;;;3.46;82.95;101258.55;112990;1209;64400;-74
2021/03/25 03:47:21;;;;;;;45.67;17.83;;;;;;;3.40;82.59;101259.01;113058;1209;64501;-73
2021/03/25 03:49:52;;;;;;;51.30;20.30;;;;;;;3.31;81.96;101260.53;113009;1209;64371;-74
2021/03/25 03:52:27;;;;;;;62.93;22.57;;;;;;;3.24;81.78;101265.39;113113;1209;64388;-74
2021/03/25 03:54:55;;;;;;;57.15;21.60;;;;;;;3.21;82.03;101264.78;113030;1209;64396;-75
2021/03/25 03:57:50;;;;;;;43.17;19.43;;;;;;;3.16;81.54;101272.16;112969;1209;64786;-74
2021/03/25 04:00:43;;;;;;;54.70;22.10;;;;;;;3.10;81.50;101265.56;112950;1209;64368;-74
2021/03/25 04:03:15;;;;;;;62.95;24.50;;;;;;;3.10;82.14;101262.11;113045;1209;64493;-74
2021/03/25 04:05:50;;;;;;;59.90;24.20;;;;;;;3.06;82.00;101262.36;112933;1209;64617;-74
2021/03/25 04:08:39;;;;;;;53.45;22.95;;;;;;;3.06;82.02;101264.98;112995;1209;64384;-76
2021/03/25 04:11:18;;;;;;;57.25;23.75;;;;;;;3.07;81.95;101263.19;112962;1209;64368;-76
2021/03/25 04:13:55;;;;;;;55.47;22.20;;;;;;;3.04;82.16;101258.18;112952;1209;64467;-76
2021/03/25 04:16:27;;;;;;;59.50;23.35;;;;;;;3.02;81.97;101257.45;113091;1209;64432;-75
2021/03/25 04:19:24;;;;;;;57.30;22.95;;;;;;;2.98;81.83;101258.63;113072;1209;64448;-76
2021/03/25 04:22:06;;;;;;;60.30;23.83;;;;;;;2.97;82.38;101267.42;112958;1209;64340;-76
2021/03/25 04:24:43;;;;;;;67.10;23.90;;;;;;;2.93;82.46;101256.31;113030;1209;64371;-75
2021/03/25 04:27:18;;;;;;;59.65;25.50;;;;;;;2.94;82.52;101254.55;112992;1209;64848;-75
2021/03/25 04:29:52;;;;;;;70.45;26.45;;;;;;;2.95;83.09;101253.59;113001;1209;65698;-74
2021/03/25 04:32:19;;;;;;;58.13;24.13;;;;;;;2.97;82.26;101256.94;113032;1209;64525;-74
2021/03/25 04:34:49;;;;;;;62.90;25.50;;;;;;;2.98;82.74;101248.97;112940;1209;64372;-75
2021/03/25 04:37:17;;;;;;;50.80;23.20;;;;;;;3.00;82.84;101261.97;112956;1209;64410;-74
2021/03/25 04:39:47;;;;;;;58.35;24.05;;;;;;;3.00;83.22;101257.56;113027;1209;64387;-76
2021/03/25 04:42:15;;;;;;;63.80;25.65;;;;;;;3.03;83.15;101256.49;113294;1209;64423;-75
2021/03/25 04:45:15;;;;;;;56.47;22.37;;;;;;;3.05;83.17;101247.56;113233;1209;64505;-73
2021/03/25 04:47:48;;;;;;;63.73;24.33;;;;;;;3.07;82.51;101260.56;113289;1209;64310;-75
2021/03/25 04:50:37;;;;;;;62.97;23.33;;;;;;;3.07;82.73;101252.70;113182;1209;64338;-74
2021/03/25 04:53:20;;;;;;;54.33;22.30;;;;;;;3.09;82.82;101261.29;113025;1209;64397;-76
2021/03/25 04:55:47;;;;;;;59.00;23.63;;;;;;;3.12;82.86;101260.22;113004;1209;64499;-75
2021/03/25 04:58:32;;;;;;;60.00;24.75;;;;;;;3.14;82.89;101267.02;112996;1209;64489;-74
2021/03/25 05:01:07;;;;;;;55.67;22.43;;;;;;;3.14;82.93;101269.64;113019;1209;64352;-75
2021/03/25 05:03:35;;;;;;;51.50;22.60;;;;;;;3.11;82.67;101267.25;112996;1209;64384;-75
2021/03/25 05:06:04;;;;;;;73.00;26.35;;;;;;;3.11;83.11;101269.05;113443;1209;64346;-73
2021/03/25 05:08:35;;;;;;;67.30;24.05;;;;;;;3.09;82.54;101271.77;112932;1209;64419;-74
2021/03/25 05:11:10;;;;;;;68.27;25.63;;;;;;;3.06;82.54;101278.08;112744;1209;64484;-74
2021/03/25 05:13:46;;;;;;;68.53;26.07;;;;;;;3.06;82.80;101274.63;112995;1209;64847;-74
2021/03/25 05:16:46;;;;;;;53.43;20.13;;;;;;;3.05;82.79;101259.84;113018;1209;64486;-74
2021/03/25 05:19:16;;;;;;;53.40;22.90;;;;;;;3.04;83.24;101272.11;112935;1209;64357;-76
2021/03/25 05:22:06;;;;;;;58.03;22.43;;;;;;;3.03;82.61;101273.05;112998;1209;64269;-74
2021/03/25 05:24:52;;;;;;;54.40;22.47;;;;;;;3.07;83.06;101278.91;112936;1209;64416;-73
2021/03/25 05:27:26;;;;;;;60.60;24.40;;;;;;;3.11;82.72;101272.50;112986;1209;64467;-76
2021/03/25 05:29:57;;;;;;;61.40;23.13;;;;;;;3.15;82.52;101265.25;113102;1209;64381;-76
2021/03/25 05:32:29;;;;;;;60.23;23.47;;;;;;;3.19;82.64;101267.53;112938;1209;65321;-75
2021/03/25 05:34:59;;;;;;;56.77;24.20;;;;;;;3.24;82.61;101281.13;112923;1209;64368;-75
2021/03/25 05:37:26;;;;;;;54.97;21.63;;;;;;;3.31;83.03;101275.44;112980;1209;64451;-75
2021/03/25 05:39:53;;;;;;;57.93;23.97;;;;;;;3.38;82.82;101279.27;112960;1209;64550;-75
2021/03/25 05:42:33;;;;;;;63.33;24.40;;;;;;;3.43;82.42;101279.78;113092;1209;64410;-74
2021/03/25 05:45:25;;;;;;;56.67;22.60;;;;;;;3.44;82.56;101281.44;113225;1209;64358;-74
2021/03/25 05:48:18;;;;;;;64.37;23.23;;;;;;;3.52;82.75;101281.70;112942;1209;64476;-74
2021/03/25 05:50:56;;;;;;;56.75;23.40;;;;;;;3.56;82.13;101285.77;113018;1209;64429;-77
2021/03/25 05:53:41;;;;;;;58.75;24.70;;;;;;;3.59;82.14;101290.80;112969;1209;64380;-77
2021/03/25 05:56:38;;;;;;;60.73;23.40;;;;;;;3.68;82.20;101297.98;112992;1209;64381;-74
2021/03/25 05:59:16;;;;;;;49.93;22.17;;;;;;;3.74;82.29;101308.95;112817;1207;64518;-74
2021/03/25 06:01:53;;;;;;;57.53;22.03;;;;;;;3.77;81.92;101299.06;112991;1209;64416;-75
2021/03/25 06:04:26;;;;;;;45.20;19.57;;;;;;;3.86;82.32;101302.78;112921;1209;64486;-74
2021/03/25 06:07:16;;;;;;;52.90;22.70;;;;;;;3.93;81.82;101293.51;113099;1209;64413;-75
2021/03/25 06:09:55;;;;;;;56.90;23.50;;;;;;;4.01;81.97;101304.23;112943;1209;65333;-76
2021/03/25 06:12:59;;;;;;;50.43;22.47;;;;;;;4.06;81.31;101309.16;112998;1209;64358;-76
2021/03/25 06:15:52;;;;;;;60.07;23.17;;;;;;;4.14;81.05;101293.63;112979;1209;64387;-75
2021/03/25 06:18:40;;;;;;;49.60;20.50;;;;;;;4.21;81.43;101297.47;113015;1209;64493;-76
2021/03/25 06:21:32;;;;;;;48.20;22.90;;;;;;;4.36;81.45;101305.95;113009;1209;64352;-76
2021/03/25 06:24:36;;;;;;;52.15;21.95;;;;;;;4.45;80.80;101307.84;112888;1209;64410;-78
2021/03/25 06:27:41;;;;;;;50.80;21.50;;;;;;;4.60;80.93;101308.43;112981;1209;64317;-79
2021/03/25 06:30:17;;;;;;;35.15;16.30;;;;;;;4.72;80.65;101311.89;112937;1209;64419;-76
2021/03/25 06:32:59;;;;;;;31.90;16.17;;;;;;;4.81;80.47;101311.16;115965;1209;62123;-78
2021/03/25 06:36:01;;;;;;;58.35;22.50;;;;;;;4.95;80.03;101320.58;114297;1209;64477;-77
2021/03/25 06:38:46;;;;;;;63.50;24.83;;;;;;;5.12;80.03;101316.56;113102;1209;64375;-78
2021/03/25 06:41:23;;;;;;;51.17;22.37;;;;;;;5.30;79.89;101328.23;113139;1209;64934;-77
2021/03/25 06:44:09;;;;;;;41.77;18.77;;;;;;;5.47;79.39;101328.66;113244;1209;64409;-80
2021/03/25 06:46:45;;;;;;;50.60;21.67;;;;;;;5.60;79.54;101331.94;113249;1209;64464;-77
2021/03/25 06:49:30;;;;;;;42.97;18.57;;;;;;;5.78;79.16;101320.84;113131;1209;64310;-78
2021/03/25 06:52:14;;;;;;;42.30;18.80;;;;;;;5.96;79.07;101323.77;113143;1209;64406;-77
2021/03/25 06:54:40;;;;;;;42.23;18.87;;;;;;;6.16;78.12;101322.07;113314;1209;64352;-77
2021/03/25 06:57:15;;;;;;;47.70;21.03;;;;;;;6.31;77.83;101318.98;113195;1209;64387;-79
2021/03/25 06:59:44;;;;;;;43.15;19.60;;;;;;;6.51;77.09;101324.33;113279;1209;64393;-77
2021/03/25 07:02:25;;;;;;;44.63;19.97;;;;;;;6.68;76.80;101323.69;113111;1209;64487;-77
2021/03/25 07:04:56;;;;;;;30.97;15.13;;;;;;;6.81;75.79;101323.44;113384;1209;64442;-78
2021/03/25 07:07:30;;;;;;;49.70;20.07;;;;;;;6.95;75.84;101324.88;113245;1209;64419;-78
2021/03/25 07:09:58;;;;;;;30.23;15.00;;;;;;;7.10;75.54;101333.23;113152;1209;65782;-78
2021/03/25 07:12:31;;;;;;;43.00;19.77;;;;;;;7.21;74.74;101341.02;113348;1209;64388;-80
2021/03/25 07:15:00;;;;;;;45.50;18.70;;;;;;;7.33;74.15;101341.70;113409;1209;64442;-78
2021/03/25 07:17:47;;;;;;;43.23;18.53;;;;;;;7.42;74.01;101351.46;113495;1209;64383;-78
2021/03/25 07:20:28;;;;;;;43.30;19.57;;;;;;;7.49;73.29;101346.45;113191;1209;64838;-78
2021/03/25 07:23:15;;;;;;;47.17;19.53;;;;;;;7.58;73.49;101350.89;113147;1209;64415;-79
2021/03/25 07:25:46;;;;;;;41.40;20.60;;;;;;;7.69;72.96;101347.27;113162;1209;64413;-76
2021/03/25 07:28:20;;;;;;;51.73;20.97;;;;;;;7.78;72.78;101340.31;113144;1209;64285;-75
2021/03/25 07:30:54;;;;;;;38.50;19.47;;;;;;;7.88;72.65;101341.97;113125;1209;64464;-76
2021/03/25 07:33:23;;;;;;;41.60;17.83;;;;;;;7.95;72.32;101348.37;113066;1209;64336;-75
2021/03/25 07:35:57;;;;;;;38.80;16.63;;;;;;;8.01;71.60;101340.84;113059;1209;64378;-76
2021/03/25 07:38:32;;;;;;;35.17;15.07;;;;;;;8.06;71.36;101346.55;112972;1209;64484;-75
2021/03/25 07:41:07;;;;;;;;;;;;;;;8.08;71.25;101348.06;112967;1217;64326;-75
2021/03/25 07:43:54;;;;;;;48.83;19.33;;;;;;;8.15;71.83;101351.80;112957;1209;64356;-75
2021/03/25 07:46:33;;;;;;;49.87;21.27;;;;;;;8.23;71.18;101350.27;113333;1209;64340;-77
2021/03/25 07:49:14;;;;;;;44.20;20.30;;;;;;;8.28;70.85;101355.94;113092;1209;64464;-76
2021/03/25 07:51:44;;;;;;;45.40;19.47;;;;;;;8.33;70.63;101348.40;113127;1209;64531;-76
2021/03/25 07:54:25;;;;;;;45.30;18.87;;;;;;;8.38;70.56;101356.75;113207;1209;65100;-76
2021/03/25 07:57:02;;;;;;;42.20;20.10;;;;;;;8.44;70.88;101358.85;113078;1209;64355;-77
2021/03/25 07:59:33;;;;;;;32.57;16.33;;;;;;;8.47;70.99;101360.37;113153;1209;64702;-76
2021/03/25 08:02:00;;;;;;;40.70;20.10;;;;;;;8.55;70.86;101363.95;113011;1209;64374;-75
2021/03/25 08:04:30;;;;;;;43.33;19.60;;;;;;;8.62;70.70;101355.44;113096;1209;64471;-74
2021/03/25 08:07:04;;;;;;;42.00;19.77;;;;;;;8.71;70.65;101357.20;113103;1209;64487;-74
2021/03/25 08:09:54;;;;;;;28.18;13.90;;;;;;;8.75;70.39;101361.22;113003;1209;65652;-75
2021/03/25 08:12:22;;;;;;;34.30;14.80;;;;;;;8.72;69.42;101353.59;112932;1209;65498;-75
2021/03/25 08:14:51;;;;;;;38.53;17.10;;;;;;;8.70;70.22;101353.72;113155;1209;64506;-76
2021/03/25 08:17:28;;;;;;;24.77;13.57;;;;;;;8.68;69.67;101355.69;113131;1209;64383;-75
2021/03/25 08:20:08;;;;;;;45.30;20.43;;;;;;;8.72;69.78;101356.23;113273;1209;64378;-75
2021/03/25 08:23:02;;;;;;;36.07;16.97;;;;;;;8.80;70.40;101351.05;113079;1209;64410;-75
2021/03/25 08:25:35;;;;;;;31.90;15.47;;;;;;;8.90;69.46;101353.63;113101;1207;64490;-75
2021/03/25 08:28:12;;;;;;;36.43;17.47;;;;;;;8.97;70.06;101352.89;113092;1209;64393;-75
2021/03/25 08:31:34;;;;;;;34.50;16.45;;;;;;;9.07;68.96;101349.34;113097;1209;64391;-75
2021/03/25 08:34:24;;;;;;;41.40;19.00;;;;;;;9.20;69.28;101355.10;112686;1212;64593;-76
2021/03/25 08:37:01;;;;;;;48.13;20.70;;;;;;;9.36;69.27;101354.45;113087;1209;64387;-78
2021/03/25 08:39:47;;;;;;;35.43;15.90;;;;;;;9.50;68.54;101353.08;113191;1209;64377;-78
2021/03/25 08:42:24;;;;;;;;;;;;;;;9.61;68.36;101347.56;113311;1217;64317;-76
2021/03/25 08:45:26;;;;;;;42.97;20.00;;;;;;;9.73;68.20;101346.34;113231;1209;64377;-82
2021/03/25 08:48:04;;;;;;;29.40;15.20;;;;;;;9.86;67.25;101350.40;113222;1209;64317;-80
2021/03/25 08:50:55;;;;;;;35.60;15.65;;;;;;;9.97;67.61;101352.82;113369;1209;64487;-82
2021/03/25 08:53:36;;;;;;;36.23;14.13;;;;;;;10.04;67.34;101353.85;113333;1209;64416;-82
2021/03/25 08:56:23;;;;;;;31.57;16.27;;;;;;;10.06;67.10;101357.18;113152;1209;64423;-78
2021/03/25 08:58:55;;;;;;;43.03;21.40;;;;;;;10.10;67.40;101357.71;113056;1209;64375;-76
2021/03/25 09:01:30;;;;;;;50.17;23.30;;;;;;;10.21;67.64;101360.09;113341;1209;64390;-82
2021/03/25 09:04:03;;;;;;;47.57;20.70;;;;;;;10.34;66.83;101349.09;113319;1209;65590;-78
2021/03/25 09:06:37;;;;;;;50.33;23.50;;;;;;;10.42;66.53;101351.80;113658;1209;64412;-82
2021/03/25 09:09:35;;;;;;;44.03;21.47;;;;;;;10.48;66.52;101356.48;113433;1209;64490;-78
2021/03/25 09:12:20;;;;;;;35.53;16.97;;;;;;;10.52;66.15;101360.48;113125;1209;64400;-77
2021/03/25 09:14:48;;;;;;;32.77;16.60;;;;;;;10.52;66.16;101362.27;113113;1209;64381;-76
2021/03/25 09:17:19;;;;;;;37.63;16.87;;;;;;;10.48;65.48;101361.78;113178;1209;64397;-80
2021/03/25 09:19:50;;;;;;;40.20;17.93;;;;;;;10.42;65.56;101362.41;113390;1209;64317;-80
2021/03/25 09:22:56;;;;;;;36.73;18.13;;;;;;;10.42;65.99;101362.41;113313;1209;64534;-78
2021/03/25 09:25:36;;;;;;;46.97;21.83;;;;;;;10.54;66.28;101361.16;112807;1212;64563;-80
2021/03/25 09:28:11;;;;;;;45.25;17.00;;;;;;;10.64;65.54;101354.88;113567;1209;64426;-78
2021/03/25 09:30:46;;;;;;;40.00;19.03;;;;;;;10.70;64.87;101348.94;113255;1209;64367;-79
2021/03/25 09:33:41;;;;;;;45.10;21.18;;;;;;;10.77;65.26;101350.81;113478;1209;64375;-79
2021/03/25 09:36:17;;;;;;;36.13;18.05;;;;;;;10.89;64.01;101358.47;113351;1209;64381;-78
2021/03/25 09:38:57;;;;;;;36.23;17.43;;;;;;;10.90;63.89;101355.67;113352;1209;64414;-79
2021/03/25 09:41:29;;;;;;;37.77;18.73;;;;;;;10.91;63.91;101351.18;113273;1209;64349;-79
2021/03/25 09:44:19;;;;;;;38.73;18.93;;;;;;;10.89;63.32;101356.64;113370;1209;64400;-80
2021/03/25 09:46:50;;;;;;;35.57;17.63;;;;;;;10.92;63.46;101352.83;113324;1207;64374;-81
2021/03/25 09:49:20;;;;;;;35.15;18.35;;;;;;;10.92;62.68;101356.34;113575;1209;64428;-83
2021/03/25 09:52:08;;;;;;;37.33;18.73;;;;;;;10.88;63.00;101351.48;113306;1209;64384;-83
2021/03/25 09:54:41;;;;;;;43.93;20.13;;;;;;;10.89;62.99;101353.98;113496;1209;64340;-84
2021/03/25 09:57:34;;;;;;;37.23;18.93;;;;;;;10.91;63.57;101346.70;113507;1209;64409;-82
2021/03/25 10:00:09;;;;;;;34.30;17.37;;;;;;;10.94;63.69;101338.39;113625;1209;64323;-85
2021/03/25 10:02:51;;;;;;;34.13;15.70;;;;;;;10.98;63.22;101344.22;113530;1209;64509;-79
2021/03/25 10:08:11;;;;;;;37.37;20.20;;;;;;;11.08;62.89;101344.92;113502;1209;64359;-82
2021/03/25 10:11:00;;;;;;;32.17;17.70;;;;;;;11.25;62.78;101342.30;113446;1209;64384;-80
2021/03/25 10:13:44;;;;;;;40.53;18.97;;;;;;;11.39;62.46;101339.84;113607;1209;64483;-77
2021/03/25 10:16:50;;;;;;;36.43;18.20;;;;;;;11.62;61.49;101333.86;113208;1209;65388;-81
2021/03/25 10:19:46;;;;;;;31.95;18.50;;;;;;;11.87;61.21;101336.52;113698;1209;64368;-81
2021/03/25 10:22:20;;;;;;;37.30;19.70;;;;;;;12.09;60.18;101335.86;113420;1209;64294;-80
2021/03/25 10:24:57;;;;;;;37.43;19.07;;;;;;;12.26;59.27;101335.81;113397;1215;65620;-81
2021/03/25 10:27:32;;;;;;;33.07;19.23;;;;;;;12.35;58.78;101334.80;113484;1209;64259;-79
2021/03/25 10:30:22;;;;;;;40.05;20.05;;;;;;;12.45;58.54;101335.41;113428;1209;64317;-82
2021/03/25 10:32:50;;;;;;;37.95;20.55;;;;;;;12.56;57.88;101326.22;113382;1209;64323;-79
2021/03/25 10:35:21;;;;;;;37.27;18.87;;;;;;;12.65;57.81;101328.69;113470;1209;64253;-80
2021/03/25 10:37:53;;;;;;;40.97;20.93;;;;;;;12.71;57.35;101323.66;114010;1209;64361;-81
2021/03/25 10:40:39;;;;;;;39.40;17.30;;;;;;;12.77;56.93;101326.48;113399;1209;64435;-79
2021/03/25 10:43:18;;;;;;;38.20;20.33;;;;;;;12.82;57.58;101331.29;113419;1209;64378;-79
2021/03/25 10:45:57;;;;;;;51.10;24.97;;;;;;;12.93;57.43;101327.41;113149;1209;64474;-80
2021/03/25 10:48:30;;;;;;;32.13;17.43;;;;;;;12.99;56.84;101327.53;113409;1209;64448;-78
2021/03/25 10:51:11;;;;;;;44.25;24.15;;;;;;;13.01;57.03;101320.19;113120;1209;64316;-77
2021/03/25 10:53:52;;;;;;;45.40;24.20;;;;;;;13.02;56.95;101316.51;113117;1209;64748;-77
2021/03/25 10:56:39;;;;;;;38.77;20.60;;;;;;;13.09;57.14;101316.66;113023;1209;64381;-77
2021/03/25 10:59:12;;;;;;;42.13;21.20;;;;;;;13.18;56.80;101312.11;113094;1209;64447;-78
2021/03/25 11:01:56;;;;;;;40.40;18.83;;;;;;;13.27;56.41;101313.70;113254;1209;64415;-78
2021/03/25 11:04:29;;;;;;;38.20;20.03;;;;;;;13.43;56.54;101310.95;113195;1209;64419;-78
2021/03/25 11:07:13;;;;;;;41.85;21.80;;;;;;;13.57;55.95;101309.33;113124;1209;64359;-81
2021/03/25 11:09:39;;;;;;;37.33;19.40;;;;;;;13.75;55.83;101310.84;113325;1209;64505;-79
2021/03/25 11:12:21;;;;;;;36.97;20.23;;;;;;;13.93;55.62;101307.84;113179;1209;64515;-80
2021/03/25 11:14:55;;;;;;;28.73;15.33;;;;;;;14.05;54.07;101301.88;113223;1209;64352;-81
2021/03/25 11:17:23;;;;;;;37.33;19.47;;;;;;;14.13;54.51;101303.65;113416;1209;64419;-83
2021/03/25 11:19:53;;;;;;;46.23;25.77;;;;;;;14.25;53.78;101304.00;113325;1209;64403;-82
2021/03/25 11:22:21;;;;;;;46.05;25.80;;;;;;;14.37;52.94;101299.05;113424;1209;64375;-81
2021/03/25 11:24:51;;;;;;;50.37;25.93;;;;;;;14.49;53.34;101305.55;113347;1209;64540;-82
2021/03/25 11:27:23;;;;;;;45.57;23.00;;;;;;;14.62;52.22;101297.75;113430;1209;64422;-83
2021/03/25 11:30:04;;;;;;;41.85;20.35;;;;;;;14.63;51.63;101295.91;113551;1209;64851;-81
2021/03/25 11:32:36;;;;;;;40.53;22.37;;;;;;;14.61;51.62;101293.41;113394;1209;64310;-78
2021/03/25 11:35:38;;;;;;;52.13;26.43;;;;;;;14.58;51.41;101288.45;113380;1209;64397;-79
2021/03/25 11:38:30;;;;;;;45.30;23.90;;;;;;;14.64;52.16;101290.38;113228;1209;64435;-79
2021/03/25 11:41:00;;;;;;;44.80;22.95;;;;;;;14.72;52.96;101285.94;113340;1209;64339;-79
2021/03/25 11:43:49;;;;;;;38.70;21.73;;;;;;;14.78;52.28;101285.19;113592;1209;64401;-80
2021/03/25 11:46:34;;;;;;;42.77;22.33;;;;;;;14.79;51.42;101287.69;113584;1209;64311;-81
2021/03/25 11:49:16;;;;;;;45.53;24.70;;;;;;;14.83;51.11;101293.45;113692;1209;64433;-82
2021/03/25 11:52:03;;;;;;;47.60;24.53;;;;;;;14.87;50.87;101290.21;113684;1209;64458;-81
2021/03/25 11:54:36;;;;;;;38.90;21.73;;;;;;;14.95;51.00;101293.80;113260;1209;64764;-81
2021/03/25 11:57:22;;;;;;;45.07;24.03;;;;;;;14.99;50.14;101285.22;113566;1209;64352;-83
2021/03/25 12:00:02;;;;;;;42.57;23.40;;;;;;;15.02;50.44;101281.33;113289;1209;64375;-82